EBCI

Brussels South Charleroi Airport

Brussels, Belgium
METAR EBCI 201220Z 06004KT 010V100 CAVOK 13/07 Q1031 NOSIG
Observed Flight Rules
Oct-20 @ 12:20 UTC (31 minutes ago) Visual Flight Rules
Wind Visibility Clouds
60° at 4 knots 10,000+ meters
  • Clear skies
Temperatures Readings
Current 13°C / 55°F
Dewpoint 7°C / 45°F
Humidity 67%
Altimeter 30.44" Hg
Pressure 1031 hPa
Elevation 192
METAR EBCI 201220Z 06004KT 010V100 CAVOK 13/07 Q1031 NOSIG
Observed Flight Rules
Oct-20 @ 12:20 UTC
(31 minutes ago)
VFR
Wind Visibility
60° at 4 knots 10,000+ meters
Clouds
  • Clear skies
Temperature Dewpoint
13°C / 55°F 7°C / 45°F
Humidity Altimeter Pressure
67% 30.44" Hg 1031 hPa